Time;durP1;ratioP1;P1;durP2;ratioP2;P2;SDS_P1;SDS_P2;PMS_P1;PMS_P2;Temp;Humidity;BMP_temperature;BMP_pressure;BME280_temperature;BME280_humidity;BME280_pressure;Samples;Min_cycle;Max_cycle;Signal;HPM_P1;HPM_P2
2021/08/25 00:00:37;;;;;;;18.63;10.40;;;;;;;14.56;100.00;102869.28;5051003;28;20069;-68
2021/08/25 00:03:07;;;;;;;16.42;10.02;;;;;;;14.54;100.00;102877.34;5052127;28;20339;-67
2021/08/25 00:05:35;;;;;;;17.85;11.02;;;;;;;14.53;100.00;102874.69;5053286;28;20065;-68
2021/08/25 00:08:03;;;;;;;15.77;9.82;;;;;;;14.51;100.00;102871.16;5052522;28;20073;-68
2021/08/25 00:10:31;;;;;;;15.73;9.85;;;;;;;14.47;100.00;102869.41;5050260;28;20095;-68
2021/08/25 00:12:59;;;;;;;16.27;10.18;;;;;;;14.43;100.00;102870.38;5051152;28;20122;-68
2021/08/25 00:15:27;;;;;;;18.10;10.23;;;;;;;14.41;100.00;102867.72;5051667;28;20045;-69
2021/08/25 00:17:55;;;;;;;16.52;11.63;;;;;;;14.36;100.00;102867.78;5048876;28;20065;-68
2021/08/25 00:20:24;;;;;;;16.50;10.48;;;;;;;14.36;100.00;102864.22;5054297;28;20369;-68
2021/08/25 00:22:52;;;;;;;17.45;10.32;;;;;;;14.36;100.00;102865.09;5052326;28;20139;-68
2021/08/25 00:25:20;;;;;;;15.15;9.98;;;;;;;14.33;100.00;102866.94;5052948;28;20439;-69
2021/08/25 00:27:47;;;;;;;15.98;10.95;;;;;;;14.33;100.00;102858.88;5050549;28;20095;-68
2021/08/25 00:30:15;;;;;;;17.55;11.10;;;;;;;14.28;100.00;102860.75;5048784;28;20104;-68
2021/08/25 00:32:43;;;;;;;20.35;11.20;;;;;;;14.25;100.00;102855.44;5050095;28;20084;-68
2021/08/25 00:35:11;;;;;;;18.33;11.25;;;;;;;14.23;100.00;102851.88;5048144;28;20359;-68
2021/08/25 00:37:40;;;;;;;18.42;11.20;;;;;;;14.24;100.00;102848.31;5050218;28;20140;-67
2021/08/25 00:40:10;;;;;;;18.25;11.23;;;;;;;14.22;100.00;102839.34;5049690;28;20061;-68
2021/08/25 00:42:37;;;;;;;25.55;12.60;;;;;;;14.17;100.00;102840.31;5050022;28;20048;-67
2021/08/25 00:45:07;;;;;;;20.33;11.48;;;;;;;14.12;100.00;102841.31;5053034;28;20434;-67
2021/08/25 00:47:37;;;;;;;20.23;10.60;;;;;;;14.10;100.00;102844.03;5047208;28;20122;-67
2021/08/25 00:50:06;;;;;;;25.25;12.20;;;;;;;14.02;100.00;102844.13;5052730;28;20072;-69
2021/08/25 00:52:34;;;;;;;17.65;11.25;;;;;;;14.00;100.00;102834.34;5050533;28;20066;-67
2021/08/25 00:55:04;;;;;;;23.55;11.48;;;;;;;13.96;100.00;102836.19;5056283;28;20364;-68
2021/08/25 00:57:35;;;;;;;19.50;11.57;;;;;;;13.93;100.00;102838.91;5057980;28;20339;-69
2021/08/25 01:00:03;;;;;;;19.42;12.02;;;;;;;13.95;100.00;102845.13;5052238;28;20151;-68
2021/08/25 01:02:38;;;;;;;20.77;12.45;;;;;;;13.93;100.00;102838.91;5048177;28;20116;-68
2021/08/25 01:05:09;;;;;;;17.58;11.45;;;;;;;13.93;100.00;102835.34;5052562;28;20060;-68
2021/08/25 01:07:38;;;;;;;22.02;12.50;;;;;;;13.91;100.00;102840.72;5053824;28;21045;-68
2021/08/25 01:13:02;;;;;;;23.20;13.20;;;;;;;13.82;100.00;102836.38;5045107;27;20430;-70
2021/08/25 01:15:31;;;;;;;19.50;11.77;;;;;;;13.78;100.00;102825.72;5026993;28;20447;-72
2021/08/25 01:18:01;;;;;;;20.25;13.00;;;;;;;13.76;100.00;102828.41;5026732;28;20099;-70
2021/08/25 01:20:29;;;;;;;23.95;13.70;;;;;;;13.74;100.00;102824.88;5029377;28;20073;-70
2021/08/25 01:22:58;;;;;;;22.30;13.40;;;;;;;13.69;100.00;102831.19;5030621;28;20058;-67
2021/08/25 01:25:27;;;;;;;19.92;12.25;;;;;;;13.69;100.00;102826.72;5029719;28;20107;-67
2021/08/25 01:27:57;;;;;;;22.10;13.18;;;;;;;13.68;100.00;102833.00;5030813;28;20065;-66
2021/08/25 01:30:29;;;;;;;20.88;12.15;;;;;;;13.67;100.00;102824.97;5027739;28;20067;-66
2021/08/25 01:32:59;;;;;;;27.08;14.25;;;;;;;13.65;100.00;102824.97;5027214;28;20062;-66
2021/08/25 01:35:32;;;;;;;24.70;13.70;;;;;;;13.63;100.00;102830.34;5029082;28;20053;-66
2021/08/25 01:38:02;;;;;;;22.77;13.73;;;;;;;13.60;100.00;102835.78;5026974;28;20065;-66
2021/08/25 01:40:31;;;;;;;26.15;14.73;;;;;;;13.58;100.00;102834.00;5029220;28;20459;-68
2021/08/25 01:42:59;;;;;;;21.90;13.05;;;;;;;13.53;100.00;102831.38;5031449;28;20471;-68
2021/08/25 01:45:28;;;;;;;23.75;13.68;;;;;;;13.47;100.00;102822.53;5028335;28;20124;-66
2021/08/25 01:47:56;;;;;;;26.00;14.57;;;;;;;13.50;100.00;102826.09;5035612;28;20104;-69
2021/08/25 01:50:24;;;;;;;27.38;14.93;;;;;;;13.48;100.00;102827.00;5026946;28;20347;-68
2021/08/25 01:52:52;;;;;;;23.05;13.65;;;;;;;13.43;100.00;102813.63;5027173;28;20050;-68
2021/08/25 01:55:20;;;;;;;24.90;14.25;;;;;;;13.38;100.00;102815.50;5029974;28;20164;-68
2021/08/25 01:57:48;;;;;;;25.20;14.43;;;;;;;13.35;100.00;102816.44;5026711;28;20507;-68
2021/08/25 02:00:17;;;;;;;23.40;15.13;;;;;;;13.30;100.00;102812.88;5027183;28;20492;-68
2021/08/25 02:02:46;;;;;;;25.13;15.00;;;;;;;13.23;100.00;102804.03;5030517;28;20087;-68
2021/08/25 02:05:14;;;;;;;29.80;14.45;;;;;;;13.24;100.00;102802.22;5025873;28;20590;-68
2021/08/25 02:07:42;;;;;;;21.98;14.60;;;;;;;13.24;100.00;102799.53;5027846;28;20069;-70
2021/08/25 02:10:10;;;;;;;25.35;14.23;;;;;;;13.21;100.00;102791.53;5027436;28;20068;-69
2021/08/25 02:12:38;;;;;;;31.75;16.95;;;;;;;13.27;100.00;102795.03;5026291;28;20319;-69
2021/08/25 02:15:07;;;;;;;26.83;14.95;;;;;;;13.24;100.00;102788.81;5027479;28;20492;-69
2021/08/25 02:17:35;;;;;;;25.27;15.85;;;;;;;13.26;100.00;102782.56;5026657;28;20329;-68
2021/08/25 02:20:05;;;;;;;26.50;14.85;;;;;;;13.21;100.00;102784.41;5027722;28;20550;-68
2021/08/25 02:22:33;;;;;;;28.33;15.20;;;;;;;13.18;100.00;102779.06;5021757;28;20069;-70
2021/08/25 02:25:01;;;;;;;28.05;17.25;;;;;;;13.14;100.00;102780.00;5017184;28;20411;-68
2021/08/25 02:27:28;;;;;;;25.52;14.98;;;;;;;13.13;100.00;102778.25;5014155;28;20514;-68
2021/08/25 02:29:59;;;;;;;27.80;15.63;;;;;;;13.11;100.00;102777.38;5013166;28;20066;-70
2021/08/25 02:32:28;;;;;;;27.90;15.93;;;;;;;13.11;100.00;102773.78;5010575;28;20112;-67
2021/08/25 02:34:55;;;;;;;29.55;15.82;;;;;;;13.05;100.00;102772.97;5015945;28;20066;-66
2021/08/25 02:37:24;;;;;;;27.95;16.55;;;;;;;13.02;100.00;102774.78;5014328;28;20119;-66
2021/08/25 02:39:52;;;;;;;28.08;16.35;;;;;;;12.98;100.00;102771.25;5016424;28;20061;-66
2021/08/25 02:42:20;;;;;;;28.42;17.30;;;;;;;12.93;100.00;102770.44;5015369;28;20058;-66
2021/08/25 02:44:48;;;;;;;25.75;15.10;;;;;;;12.91;100.00;102777.59;5013682;28;20065;-66
2021/08/25 02:47:15;;;;;;;30.25;16.75;;;;;;;12.90;100.00;102775.81;5012553;28;20348;-66
2021/08/25 02:49:43;;;;;;;29.13;17.08;;;;;;;12.86;100.00;102768.72;5016353;28;20112;-66
2021/08/25 02:52:11;;;;;;;26.05;15.73;;;;;;;12.81;100.00;102771.44;5011681;28;20076;-66
2021/08/25 02:54:40;;;;;;;28.35;16.42;;;;;;;12.84;100.00;102765.19;5016317;28;20111;-66
2021/08/25 02:57:08;;;;;;;28.75;17.27;;;;;;;12.85;100.00;102770.50;5017643;28;20154;-66
2021/08/25 02:59:35;;;;;;;34.33;18.60;;;;;;;12.83;100.00;102766.94;5015659;28;20305;-66
2021/08/25 03:02:03;;;;;;;34.70;18.02;;;;;;;12.79;100.00;102757.19;5011876;28;20062;-67
2021/08/25 03:04:31;;;;;;;29.90;17.48;;;;;;;12.74;100.00;102758.16;5016089;28;20061;-67
2021/08/25 03:06:59;;;;;;;30.88;18.50;;;;;;;12.76;100.00;102754.53;5016511;28;20061;-67
2021/08/25 03:09:27;;;;;;;31.70;17.13;;;;;;;12.74;100.00;102748.31;5015344;28;20149;-67
2021/08/25 03:11:56;;;;;;;29.23;17.23;;;;;;;12.72;100.00;102747.44;5014652;28;20093;-67
2021/08/25 03:14:24;;;;;;;32.58;18.55;;;;;;;12.70;100.00;102750.13;5013615;28;20072;-67
2021/08/25 03:16:51;;;;;;;36.20;18.20;;;;;;;12.71;100.00;102746.53;5013451;28;20073;-67
2021/08/25 03:19:19;;;;;;;39.40;20.10;;;;;;;12.71;100.00;102749.22;5014120;28;20073;-67
2021/08/25 03:21:47;;;;;;;36.40;19.80;;;;;;;12.73;100.00;102751.00;5014367;28;20089;-69
2021/08/25 03:24:15;;;;;;;33.10;19.25;;;;;;;12.71;100.00;102751.91;5013617;28;20065;-68
2021/08/25 03:26:42;;;;;;;34.85;19.85;;;;;;;12.68;100.00;102748.38;5014143;28;20065;-68
2021/08/25 03:29:11;;;;;;;34.10;19.20;;;;;;;12.66;100.00;102748.38;5013509;28;20088;-69
2021/08/25 03:31:39;;;;;;;38.28;21.02;;;;;;;12.73;100.00;102749.22;5014021;28;20085;-69
2021/08/25 03:34:07;;;;;;;41.17;19.42;;;;;;;12.75;100.00;102735.78;5012161;28;20061;-68
2021/08/25 03:36:35;;;;;;;36.80;20.70;;;;;;;12.81;100.00;102741.09;5014067;28;20085;-68
2021/08/25 03:39:03;;;;;;;42.35;22.85;;;;;;;12.84;100.00;102736.59;5014537;28;21892;-68
2021/08/25 03:41:32;;;;;;;39.45;21.23;;;;;;;12.86;100.00;102732.09;5017499;28;20045;-68
2021/08/25 03:44:00;;;;;;;39.63;19.92;;;;;;;12.93;100.00;102734.72;5011729;28;20061;-68
2021/08/25 03:46:29;;;;;;;48.65;23.23;;;;;;;12.96;100.00;102732.88;5009627;28;20092;-68
2021/08/25 03:48:57;;;;;;;49.00;25.58;;;;;;;12.99;100.00;102730.19;5010679;28;20065;-67
2021/08/25 03:51:25;;;;;;;51.45;24.95;;;;;;;13.03;100.00;102728.34;5012537;28;20558;-67
2021/08/25 03:53:53;;;;;;;49.55;24.13;;;;;;;13.06;100.00;102729.19;5011560;28;20058;-67
2021/08/25 03:56:21;;;;;;;51.72;24.30;;;;;;;13.12;100.00;102722.84;5011284;28;20146;-67
2021/08/25 03:58:48;;;;;;;55.17;27.15;;;;;;;13.19;100.00;102719.19;5014230;28;20143;-67
2021/08/25 04:01:16;;;;;;;57.20;26.33;;;;;;;13.22;100.00;102718.25;5014599;28;20065;-67
2021/08/25 04:03:45;;;;;;;56.88;28.40;;;;;;;13.30;100.00;102719.06;5018275;28;20067;-67
2021/08/25 04:06:13;;;;;;;52.08;26.40;;;;;;;13.33;100.00;102719.06;5017901;28;20061;-67
2021/08/25 04:08:41;;;;;;;61.90;28.30;;;;;;;13.40;100.00;102717.13;5015027;28;20097;-68
2021/08/25 04:11:09;;;;;;;56.45;28.20;;;;;;;13.42;100.00;102715.34;5014884;28;20153;-68
2021/08/25 04:13:36;;;;;;;58.33;28.80;;;;;;;13.45;100.00;102713.50;5014452;28;20058;-68
2021/08/25 04:16:05;;;;;;;55.53;27.27;;;;;;;13.50;100.00;102701.81;5016316;28;20167;-68
2021/08/25 04:18:33;;;;;;;65.20;27.52;;;;;;;13.50;100.00;102707.19;5015515;28;20072;-67
2021/08/25 04:21:02;;;;;;;56.40;28.80;;;;;;;13.53;100.00;102697.28;5015613;28;20073;-68
2021/08/25 04:23:30;;;;;;;58.38;27.10;;;;;;;13.57;100.00;102703.50;5017904;28;20068;-67
2021/08/25 04:25:58;;;;;;;60.13;27.05;;;;;;;13.58;100.00;102697.22;5014040;28;20292;-68
2021/08/25 04:28:26;;;;;;;55.95;29.17;;;;;;;13.58;100.00;102700.78;5015558;28;20101;-67
2021/08/25 04:30:53;;;;;;;56.90;28.13;;;;;;;13.57;100.00;102695.44;5017027;28;20449;-68
2021/08/25 04:33:21;;;;;;;59.40;26.73;;;;;;;13.57;100.00;102700.81;5016228;28;20058;-68
2021/08/25 04:35:49;;;;;;;55.90;28.40;;;;;;;13.58;100.00;102691.88;5017617;28;20147;-69
2021/08/25 04:38:18;;;;;;;66.32;27.60;;;;;;;13.56;100.00;102691.88;5015988;28;20049;-67
2021/08/25 04:40:46;;;;;;;53.45;25.90;;;;;;;13.59;100.00;102693.66;5016172;28;20050;-67
2021/08/25 04:43:16;;;;;;;53.10;27.33;;;;;;;13.66;100.00;102697.13;5016122;28;20057;-67
2021/08/25 04:45:44;;;;;;;55.33;27.20;;;;;;;13.68;100.00;102696.19;5012918;28;20091;-68
2021/08/25 04:48:12;;;;;;;54.40;28.33;;;;;;;13.70;100.00;102693.47;5016774;28;20068;-68
2021/08/25 04:50:40;;;;;;;51.38;26.08;;;;;;;13.71;100.00;102698.81;5015547;28;20236;-68
2021/08/25 04:53:08;;;;;;;52.58;26.13;;;;;;;13.76;100.00;102699.63;5014751;28;20065;-67
2021/08/25 04:55:38;;;;;;;54.75;26.80;;;;;;;13.81;100.00;102696.88;5018017;28;20069;-67
2021/08/25 04:58:07;;;;;;;44.20;23.92;;;;;;;13.80;100.00;102695.09;5014527;28;20054;-67
2021/08/25 05:00:34;;;;;;;49.90;24.63;;;;;;;13.83;100.00;102700.41;5016566;28;20134;-67
2021/08/25 05:03:03;;;;;;;54.78;27.02;;;;;;;13.85;100.00;102695.03;5019149;28;20068;-67
2021/08/25 05:05:31;;;;;;;49.38;24.33;;;;;;;13.87;100.00;102688.72;5019846;28;20152;-67
2021/08/25 05:07:58;;;;;;;47.97;25.75;;;;;;;13.83;100.00;102687.00;5013919;28;20072;-68
2021/08/25 05:10:26;;;;;;;52.65;26.08;;;;;;;13.81;100.00;102692.38;5014786;28;20395;-67
2021/08/25 05:12:55;;;;;;;57.25;27.65;;;;;;;13.86;100.00;102688.72;5012731;28;20061;-67
2021/08/25 05:15:23;;;;;;;52.75;25.60;;;;;;;13.87;100.00;102691.41;5015458;28;20096;-68
2021/08/25 05:17:51;;;;;;;50.67;24.13;;;;;;;13.93;100.00;102693.13;5012559;28;20061;-68
2021/08/25 05:20:18;;;;;;;44.83;23.77;;;;;;;13.97;100.00;102693.00;5017724;28;20059;-68
2021/08/25 05:22:46;;;;;;;54.13;26.27;;;;;;;13.99;100.00;102685.81;5013049;28;20071;-67
2021/08/25 05:25:15;;;;;;;53.63;25.15;;;;;;;14.00;100.00;102692.09;5015087;28;20120;-67
2021/08/25 05:27:42;;;;;;;47.33;24.65;;;;;;;14.00;100.00;102690.28;5013504;28;20185;-68
2021/08/25 05:30:12;;;;;;;53.60;28.23;;;;;;;14.01;100.00;102693.84;5010912;28;20069;-67
2021/08/25 05:32:40;;;;;;;57.38;25.00;;;;;;;14.02;100.00;102701.00;5014291;28;20368;-67
2021/08/25 05:35:10;;;;;;;55.60;25.40;;;;;;;13.99;100.00;102698.34;5012624;28;20139;-67
2021/08/25 05:37:37;;;;;;;60.85;28.10;;;;;;;14.04;100.00;102698.28;5013587;28;20061;-67
2021/08/25 05:40:07;;;;;;;52.33;25.60;;;;;;;14.10;100.00;102701.75;5013890;28;20397;-67
2021/08/25 05:42:35;;;;;;;50.53;25.08;;;;;;;14.15;100.00;102697.19;5015249;28;20451;-67
2021/08/25 05:45:03;;;;;;;54.30;24.50;;;;;;;14.14;100.00;102698.09;5011990;28;20116;-68
2021/08/25 05:47:32;;;;;;;48.83;24.90;;;;;;;14.13;100.00;102695.44;5011887;28;20167;-67
2021/08/25 05:50:00;;;;;;;76.10;23.95;;;;;;;14.12;100.00;102688.31;5013852;28;20061;-68
2021/08/25 05:52:28;;;;;;;48.17;25.75;;;;;;;14.10;100.00;102691.03;5011387;28;20065;-67
2021/08/25 05:54:56;;;;;;;40.22;22.33;;;;;;;14.20;100.00;102694.44;5011206;28;20115;-67
2021/08/25 05:57:24;;;;;;;54.67;24.13;;;;;;;14.18;100.00;102698.91;5012214;28;20068;-67
2021/08/25 05:59:51;;;;;;;62.47;25.05;;;;;;;14.19;100.00;102706.94;5017591;28;20341;-67
2021/08/25 06:02:19;;;;;;;58.97;25.33;;;;;;;14.16;100.00;102704.31;5017658;28;20070;-67
2021/08/25 06:04:48;;;;;;;53.20;25.15;;;;;;;14.12;100.00;102696.38;5017333;28;21193;-69
2021/08/25 06:07:16;;;;;;;51.78;24.10;;;;;;;14.10;100.00;102698.19;5016926;28;20317;-69
2021/08/25 06:09:44;;;;;;;45.95;25.25;;;;;;;14.30;100.00;102693.34;5018150;28;20317;-69
2021/08/25 06:12:11;;;;;;;48.25;24.35;;;;;;;14.40;100.00;102694.03;5021341;28;20061;-69
2021/08/25 06:14:39;;;;;;;46.53;24.23;;;;;;;14.47;100.00;102700.19;5017950;28;20384;-69
2021/08/25 06:17:07;;;;;;;45.35;25.02;;;;;;;14.48;100.00;102700.16;5016834;28;20759;-70
2021/08/25 06:19:35;;;;;;;45.40;22.13;;;;;;;14.59;100.00;102701.78;5014469;28;20356;-69
2021/08/25 06:22:04;;;;;;;43.78;22.83;;;;;;;14.55;100.00;102700.94;5017660;28;20069;-69
2021/08/25 06:24:32;;;;;;;42.38;23.63;;;;;;;14.60;100.00;102693.72;5014104;28;20037;-69
2021/08/25 06:27:00;;;;;;;43.03;22.95;;;;;;;14.56;100.00;102694.66;5014553;28;20119;-69
2021/08/25 06:29:28;;;;;;;41.80;22.48;;;;;;;14.75;100.00;102701.47;5018717;28;20073;-69
2021/08/25 06:31:55;;;;;;;48.25;23.73;;;;;;;14.69;100.00;102695.31;5016812;28;20633;-69
2021/08/25 06:34:23;;;;;;;38.20;22.10;;;;;;;14.77;100.00;102701.44;5016037;28;20116;-69
2021/08/25 06:36:51;;;;;;;41.15;22.60;;;;;;;14.75;100.00;102696.09;5014021;28;20329;-69
2021/08/25 06:39:20;;;;;;;44.28;24.40;;;;;;;14.71;100.00;102706.91;5016079;28;20087;-68
2021/08/25 06:41:51;;;;;;;45.80;25.98;;;;;;;14.85;100.00;102712.03;5013840;28;20061;-69
2021/08/25 06:44:18;;;;;;;41.67;23.70;;;;;;;14.97;100.00;102708.22;5015991;28;20061;-69
2021/08/25 06:46:46;;;;;;;41.38;24.05;;;;;;;15.20;100.00;102708.59;5016019;28;20101;-69
2021/08/25 06:49:14;;;;;;;42.15;22.88;;;;;;;15.17;100.00;102713.16;5016813;28;20452;-69
2021/08/25 06:51:42;;;;;;;43.42;24.58;;;;;;;15.41;100.00;102709.03;5012750;28;20065;-69
2021/08/25 06:54:10;;;;;;;42.90;23.48;;;;;;;15.53;100.00;102708.75;5013437;28;20424;-69
2021/08/25 06:56:39;;;;;;;44.33;24.13;;;;;;;15.58;100.00;102712.22;5011816;28;20132;-68
2021/08/25 06:59:07;;;;;;;42.33;24.23;;;;;;;15.59;100.00;102705.03;5016630;28;20073;-69
2021/08/25 07:01:35;;;;;;;43.45;23.65;;;;;;;15.82;100.00;102710.78;5014266;28;20329;-69
2021/08/25 07:04:03;;;;;;;41.88;24.63;;;;;;;15.73;100.00;102702.88;5013076;28;20065;-69
2021/08/25 07:06:31;;;;;;;43.38;22.42;;;;;;;15.67;100.00;102711.13;5013877;28;20112;-69
2021/08/25 07:08:59;;;;;;;41.67;22.40;;;;;;;15.66;100.00;102704.88;5015264;28;20416;-69
2021/08/25 07:11:26;;;;;;;43.78;23.33;;;;;;;15.87;100.00;102702.59;5014850;28;20050;-67
2021/08/25 07:13:56;;;;;;;36.75;21.52;;;;;;;15.90;100.00;102707.00;5012445;28;20065;-68
2021/08/25 07:16:23;;;;;;;42.53;23.08;;;;;;;15.91;100.00;102700.72;5015687;28;20069;-67
2021/08/25 07:18:51;;;;;;;40.08;21.95;;;;;;;15.87;99.53;102705.31;5013073;28;20400;-68
2021/08/25 07:21:19;;;;;;;35.00;21.45;;;;;;;15.88;99.27;102696.28;5015678;28;20112;-69
2021/08/25 07:23:50;;;;;;;39.80;23.25;;;;;;;16.17;98.34;102697.34;5013394;28;20066;-68
2021/08/25 07:26:18;;;;;;;37.33;21.88;;;;;;;16.04;97.54;102710.25;5016359;28;20069;-67
2021/08/25 07:28:46;;;;;;;39.75;21.88;;;;;;;16.08;97.52;102706.56;5016468;28;20608;-68
2021/08/25 07:31:15;;;;;;;41.05;23.77;;;;;;;16.61;96.15;102712.31;5015157;28;20065;-68
2021/08/25 07:33:44;;;;;;;40.97;23.30;;;;;;;16.81;95.64;102709.06;5011783;28;20338;-67
2021/08/25 07:36:12;;;;;;;43.17;24.95;;;;;;;16.85;95.08;102709.00;5016001;28;20124;-67
2021/08/25 07:38:40;;;;;;;40.75;22.27;;;;;;;17.30;92.18;102698.66;5012538;28;20159;-65
2021/08/25 07:41:07;;;;;;;39.88;21.67;;;;;;;17.58;92.46;102699.59;5015191;28;20343;-68
2021/08/25 07:43:35;;;;;;;42.75;22.55;;;;;;;17.24;91.31;102696.16;5012078;28;20144;-66
2021/08/25 07:46:03;;;;;;;41.28;22.70;;;;;;;17.10;91.49;102704.66;5017877;28;20061;-66
2021/08/25 07:48:32;;;;;;;36.65;20.98;;;;;;;16.78;93.20;102700.19;5015191;28;20061;-66
2021/08/25 07:51:01;;;;;;;42.17;22.98;;;;;;;16.62;92.91;102700.63;5017929;28;20065;-68
2021/08/25 07:53:29;;;;;;;38.42;21.83;;;;;;;16.97;91.39;102692.47;5016270;28;20064;-66
2021/08/25 07:55:57;;;;;;;40.08;22.67;;;;;;;17.52;88.29;102696.19;5014029;28;20061;-67
2021/08/25 07:58:24;;;;;;;39.22;21.80;;;;;;;18.22;87.43;102697.47;5013845;28;20088;-67
2021/08/25 08:01:11;;;;;;;37.42;20.55;;;;;;;17.27;87.82;102692.47;5014700;28;20049;-67
2021/08/25 08:03:41;;;;;;;36.15;20.48;;;;;;;17.40;88.24;102696.56;5011124;28;20338;-68
2021/08/25 08:06:09;;;;;;;34.47;19.92;;;;;;;17.03;88.14;102703.09;5013598;28;20065;-67
2021/08/25 08:08:36;;;;;;;37.65;20.48;;;;;;;17.68;87.72;102687.59;5015763;28;20089;-67
2021/08/25 08:11:04;;;;;;;38.80;22.38;;;;;;;17.86;86.33;102688.75;5017563;28;20066;-67
2021/08/25 08:13:32;;;;;;;36.25;20.40;;;;;;;18.64;84.53;102683.38;5016812;28;20053;-67
2021/08/25 08:16:01;;;;;;;36.60;21.20;;;;;;;18.58;81.42;102688.13;5016349;28;20183;-67
2021/08/25 08:18:32;;;;;;;35.92;19.70;;;;;;;18.80;80.40;102688.22;5016907;28;20412;-67
2021/08/25 08:21:01;;;;;;;33.45;19.65;;;;;;;17.72;83.36;102684.75;5015478;28;20507;-67
2021/08/25 08:23:31;;;;;;;34.63;20.77;;;;;;;17.68;83.46;102685.75;5017873;28;20143;-67
2021/08/25 08:25:59;;;;;;;38.40;21.13;;;;;;;18.19;83.32;102688.59;5016329;28;20499;-67
2021/08/25 08:28:27;;;;;;;35.60;21.08;;;;;;;18.57;81.39;102676.41;5017888;28;20481;-67
2021/08/25 08:30:55;;;;;;;34.55;19.50;;;;;;;18.95;79.07;102684.06;5018276;28;20073;-67
2021/08/25 08:33:23;;;;;;;33.55;20.77;;;;;;;18.16;81.47;102681.47;5015589;28;20104;-67
2021/08/25 08:35:50;;;;;;;31.52;19.50;;;;;;;18.44;81.53;102677.81;5017179;28;20057;-68
2021/08/25 08:38:19;;;;;;;29.85;18.83;;;;;;;19.03;78.34;102673.81;5015677;28;20085;-68
2021/08/25 08:40:47;;;;;;;35.78;20.30;;;;;;;18.58;79.18;102671.91;5017522;28;20079;-68
2021/08/25 08:43:15;;;;;;;34.03;19.80;;;;;;;19.28;77.29;102671.03;5020319;28;20441;-68
2021/08/25 08:45:44;;;;;;;32.72;20.05;;;;;;;19.39;76.57;102671.50;5016158;28;20069;-68
2021/08/25 08:48:13;;;;;;;33.10;20.00;;;;;;;19.53;76.40;102670.94;5014380;28;20377;-68
2021/08/25 08:50:43;;;;;;;33.33;20.95;;;;;;;19.41;76.73;102669.59;5017281;28;20115;-68
2021/08/25 08:53:12;;;;;;;35.13;22.33;;;;;;;19.19;77.59;102668.72;5018841;28;20065;-68
2021/08/25 08:55:41;;;;;;;32.22;19.33;;;;;;;19.98;76.34;102658.25;5018070;28;20411;-68
2021/08/25 08:58:09;;;;;;;30.95;20.45;;;;;;;21.06;72.49;102645.25;5016633;28;20057;-68
2021/08/25 09:00:39;;;;;;;28.75;18.60;;;;;;;21.24;70.46;102638.06;5014425;28;20127;-68
2021/08/25 09:03:19;;;;;;;28.52;18.50;;;;;;;21.72;69.00;102647.47;5015356;28;20057;-68
2021/08/25 09:05:54;;;;;;;26.20;17.90;;;;;;;21.39;68.58;102644.59;5017646;28;20062;-68
2021/08/25 09:08:24;;;;;;;27.95;19.30;;;;;;;21.02;69.14;102640.94;5018983;28;20328;-69
2021/08/25 09:11:01;;;;;;;27.08;18.25;;;;;;;21.00;69.86;102640.16;5016471;28;20832;-70
2021/08/25 09:13:38;;;;;;;28.73;18.40;;;;;;;20.76;70.55;102634.94;5020347;28;20073;-69
2021/08/25 09:16:07;;;;;;;21.60;15.63;;;;;;;21.44;68.29;102632.53;5016069;28;20057;-69
2021/08/25 09:18:36;;;;;;;24.55;16.90;;;;;;;20.55;68.63;102633.16;5018197;28;20278;-68
2021/08/25 09:21:04;;;;;;;22.50;16.05;;;;;;;21.16;68.03;102627.56;5016018;28;20057;-68
2021/08/25 09:23:31;;;;;;;25.05;16.45;;;;;;;20.91;66.48;102625.19;5016965;28;20487;-68
2021/08/25 09:26:07;;;;;;;24.27;15.98;;;;;;;21.01;66.87;102620.19;5015742;28;20061;-70
2021/08/25 09:28:36;;;;;;;21.77;15.07;;;;;;;21.10;65.29;102613.44;5015501;28;20058;-69
2021/08/25 09:31:06;;;;;;;19.23;13.45;;;;;;;21.74;65.26;102620.22;5015793;28;20065;-68
2021/08/25 09:33:35;;;;;;;20.05;13.27;;;;;;;21.41;65.76;102621.81;5015205;28;20062;-68
2021/08/25 09:36:05;;;;;;;20.00;13.77;;;;;;;21.68;62.62;102626.00;5025493;28;20049;-69
2021/08/25 09:38:35;;;;;;;21.38;13.43;;;;;;;22.16;59.80;102621.69;5022130;28;20567;-69
2021/08/25 09:41:07;;;;;;;18.13;13.27;;;;;;;22.19;62.24;102613.38;5020453;28;20096;-69
2021/08/25 09:43:38;;;;;;;18.35;12.93;;;;;;;22.92;59.05;102615.75;5020382;28;20093;-69
2021/08/25 09:46:07;;;;;;;17.20;10.75;;;;;;;22.42;55.43;102609.41;5019780;28;20155;-69
2021/08/25 09:48:37;;;;;;;16.02;10.38;;;;;;;21.88;56.17;102612.25;5021527;28;20182;-69
2021/08/25 09:51:06;;;;;;;14.23;8.77;;;;;;;22.74;56.58;102621.25;5020555;28;20392;-69
2021/08/25 09:53:34;;;;;;;17.85;10.82;;;;;;;22.61;56.88;102616.56;5020779;28;20074;-69
2021/08/25 09:56:02;;;;;;;15.23;11.38;;;;;;;22.37;56.18;102614.22;5022075;28;20064;-69
2021/08/25 09:58:31;;;;;;;15.65;11.10;;;;;;;21.83;57.16;102619.78;5020034;28;20053;-68
2021/08/25 10:00:59;;;;;;;16.77;10.32;;;;;;;22.36;57.25;102620.66;5019601;28;20156;-67
2021/08/25 10:03:27;;;;;;;12.57;8.15;;;;;;;23.07;56.76;102614.91;5018032;28;20072;-67
2021/08/25 10:05:55;;;;;;;16.63;10.23;;;;;;;23.28;55.49;102620.09;5020429;28;20499;-68
2021/08/25 10:08:23;;;;;;;17.13;9.00;;;;;;;23.59;55.52;102615.56;5017412;28;20134;-68
2021/08/25 10:10:51;;;;;;;16.85;10.93;;;;;;;23.62;55.45;102607.22;5020370;28;20347;-68
2021/08/25 10:13:19;;;;;;;15.90;9.65;;;;;;;24.11;54.04;102615.19;5019911;28;20065;-67
2021/08/25 10:15:48;;;;;;;15.32;9.68;;;;;;;23.05;55.78;102605.03;5018609;28;20436;-66
2021/08/25 10:18:28;;;;;;;17.75;11.18;;;;;;;22.47;56.52;102601.03;5023435;28;20387;-66
2021/08/25 10:20:57;;;;;;;13.27;8.50;;;;;;;22.68;57.68;102588.97;5017673;28;20068;-67
2021/08/25 10:24:04;;;;;;;12.60;8.20;;;;;;;22.34;59.23;102596.25;5019577;28;20368;-67
2021/08/25 10:26:33;;;;;;;12.82;8.05;;;;;;;20.94;61.85;102591.59;5022348;28;20104;-66
2021/08/25 10:29:02;;;;;;;11.88;7.50;;;;;;;20.49;63.69;102594.53;5020440;28;20069;-67
2021/08/25 10:32:03;;;;;;;13.30;7.90;;;;;;;21.19;60.08;102578.56;5020434;28;20091;-67
2021/08/25 10:34:38;;;;;;;11.65;6.13;;;;;;;21.34;58.37;102576.94;5020410;28;20069;-67
2021/08/25 10:37:28;;;;;;;11.02;6.97;;;;;;;21.49;57.61;102579.84;5018477;28;20062;-68
2021/08/25 10:40:02;;;;;;;11.88;6.85;;;;;;;22.15;56.57;102569.16;5017069;28;20092;-67
2021/08/25 10:42:50;;;;;;;14.13;7.07;;;;;;;22.83;55.92;102559.13;5020115;28;20061;-67
2021/08/25 10:45:59;;;;;;;11.35;6.05;;;;;;;23.84;54.09;102564.09;5018644;28;20305;-67
2021/08/25 10:48:48;;;;;;;22.35;6.85;;;;;;;23.96;51.13;102567.03;5021646;28;20409;-67
2021/08/25 10:51:42;;;;;;;11.25;7.38;;;;;;;23.23;53.90;102560.44;5019619;28;20440;-67
2021/08/25 10:54:14;;;;;;;14.40;8.27;;;;;;;22.15;55.74;102558.28;5019939;28;20632;-67
2021/08/25 10:56:45;;;;;;;10.77;7.13;;;;;;;23.44;55.51;102546.53;5019835;28;20069;-67
2021/08/25 10:59:14;;;;;;;11.55;7.13;;;;;;;22.66;54.13;102544.66;5020144;28;20078;-67
2021/08/25 11:01:45;;;;;;;12.93;7.18;;;;;;;21.78;58.08;102545.78;5019221;28;20054;-68
2021/08/25 11:04:15;;;;;;;13.07;7.70;;;;;;;20.88;60.25;102543.94;5017532;28;20061;-68
2021/08/25 11:06:46;;;;;;;14.52;8.05;;;;;;;20.84;59.71;102537.78;5017499;28;20058;-68
2021/08/25 11:09:32;;;;;;;9.60;6.85;;;;;;;21.35;59.51;102537.09;5016647;28;20064;-68
2021/08/25 11:12:07;;;;;;;11.85;6.47;;;;;;;22.29;56.91;102521.34;5019774;28;20061;-68
2021/08/25 11:14:38;;;;;;;10.45;7.43;;;;;;;22.14;57.05;102520.31;5020066;28;20071;-68
2021/08/25 11:17:16;;;;;;;11.95;6.95;;;;;;;22.62;55.73;102512.25;5018192;28;20507;-68